sensor_id;sensor_type;location;lat;lon;timestamp;P1;durP1;ratioP1;P2;durP2;ratioP2
15381;SDS011;7789;51.364;12.358;2023-12-14T00:03:03;32.93;;;12.77;;
15381;SDS011;7789;51.364;12.358;2023-12-14T00:08:19;27.30;;;13.50;;
15381;SDS011;7789;51.364;12.358;2023-12-14T00:13:27;19.87;;;14.93;;
15381;SDS011;7789;51.364;12.358;2023-12-14T00:18:35;23.93;;;15.17;;
15381;SDS011;7789;51.364;12.358;2023-12-14T00:23:42;33.20;;;14.83;;
15381;SDS011;7789;51.364;12.358;2023-12-14T00:28:49;27.40;;;13.97;;
15381;SDS011;7789;51.364;12.358;2023-12-14T00:34:05;21.43;;;13.73;;
15381;SDS011;7789;51.364;12.358;2023-12-14T00:39:14;22.40;;;13.20;;
15381;SDS011;7789;51.364;12.358;2023-12-14T00:44:19;21.10;;;13.13;;
15381;SDS011;7789;51.364;12.358;2023-12-14T00:49:35;21.60;;;13.47;;
15381;SDS011;7789;51.364;12.358;2023-12-14T00:54:42;21.50;;;13.13;;
15381;SDS011;7789;51.364;12.358;2023-12-14T00:59:48;21.67;;;13.40;;
15381;SDS011;7789;51.364;12.358;2023-12-14T01:05:18;17.13;;;12.30;;
15381;SDS011;7789;51.364;12.358;2023-12-14T01:10:35;20.10;;;12.67;;
15381;SDS011;7789;51.364;12.358;2023-12-14T01:15:48;18.07;;;11.87;;
15381;SDS011;7789;51.364;12.358;2023-12-14T01:20:58;24.17;;;13.30;;
15381;SDS011;7789;51.364;12.358;2023-12-14T01:26:18;21.63;;;13.27;;
15381;SDS011;7789;51.364;12.358;2023-12-14T01:31:32;19.40;;;11.83;;
15381;SDS011;7789;51.364;12.358;2023-12-14T01:36:43;23.83;;;13.27;;
15381;SDS011;7789;51.364;12.358;2023-12-14T01:41:58;41.80;;;15.13;;
15381;SDS011;7789;51.364;12.358;2023-12-14T01:47:11;23.47;;;12.97;;
15381;SDS011;7789;51.364;12.358;2023-12-14T01:52:41;50.13;;;14.83;;
15381;SDS011;7789;51.364;12.358;2023-12-14T01:57:47;53.77;;;15.37;;
15381;SDS011;7789;51.364;12.358;2023-12-14T02:03:00;71.43;;;17.00;;
15381;SDS011;7789;51.364;12.358;2023-12-14T02:08:15;34.80;;;15.10;;
15381;SDS011;7789;51.364;12.358;2023-12-14T02:13:20;32.07;;;14.53;;
15381;SDS011;7789;51.364;12.358;2023-12-14T02:18:32;37.37;;;13.17;;
15381;SDS011;7789;51.364;12.358;2023-12-14T02:23:45;28.17;;;12.57;;
15381;SDS011;7789;51.364;12.358;2023-12-14T02:28:51;49.57;;;13.67;;
15381;SDS011;7789;51.364;12.358;2023-12-14T02:33:58;33.83;;;14.37;;
15381;SDS011;7789;51.364;12.358;2023-12-14T02:39:08;36.17;;;16.47;;
15381;SDS011;7789;51.364;12.358;2023-12-14T02:44:25;33.43;;;14.30;;
15381;SDS011;7789;51.364;12.358;2023-12-14T02:49:32;36.37;;;14.47;;
15381;SDS011;7789;51.364;12.358;2023-12-14T02:54:43;35.90;;;13.60;;
15381;SDS011;7789;51.364;12.358;2023-12-14T02:59:50;45.03;;;15.13;;
15381;SDS011;7789;51.364;12.358;2023-12-14T03:04:58;28.80;;;10.80;;
15381;SDS011;7789;51.364;12.358;2023-12-14T03:10:12;26.27;;;9.77;;
15381;SDS011;7789;51.364;12.358;2023-12-14T03:15:21;18.37;;;9.30;;
15381;SDS011;7789;51.364;12.358;2023-12-14T03:20:29;17.53;;;9.20;;
15381;SDS011;7789;51.364;12.358;2023-12-14T03:25:36;16.17;;;7.43;;
15381;SDS011;7789;51.364;12.358;2023-12-14T03:30:42;13.77;;;7.57;;
15381;SDS011;7789;51.364;12.358;2023-12-14T03:35:47;15.13;;;8.67;;
15381;SDS011;7789;51.364;12.358;2023-12-14T03:41:00;15.13;;;9.20;;
15381;SDS011;7789;51.364;12.358;2023-12-14T03:46:09;12.90;;;8.77;;
15381;SDS011;7789;51.364;12.358;2023-12-14T03:51:17;13.33;;;8.77;;
15381;SDS011;7789;51.364;12.358;2023-12-14T03:56:25;16.20;;;10.10;;
15381;SDS011;7789;51.364;12.358;2023-12-14T04:01:31;16.73;;;9.90;;
15381;SDS011;7789;51.364;12.358;2023-12-14T04:06:36;16.97;;;10.37;;
15381;SDS011;7789;51.364;12.358;2023-12-14T04:11:47;15.60;;;9.97;;
15381;SDS011;7789;51.364;12.358;2023-12-14T04:16:55;14.33;;;9.17;;
15381;SDS011;7789;51.364;12.358;2023-12-14T04:22:03;18.10;;;10.03;;
15381;SDS011;7789;51.364;12.358;2023-12-14T04:27:09;17.40;;;9.90;;
15381;SDS011;7789;51.364;12.358;2023-12-14T04:32:15;13.43;;;9.40;;
15381;SDS011;7789;51.364;12.358;2023-12-14T04:37:21;16.23;;;10.37;;
15381;SDS011;7789;51.364;12.358;2023-12-14T04:42:28;20.07;;;11.97;;
15381;SDS011;7789;51.364;12.358;2023-12-14T04:47:34;14.67;;;10.20;;
15381;SDS011;7789;51.364;12.358;2023-12-14T04:52:39;12.57;;;9.30;;
15381;SDS011;7789;51.364;12.358;2023-12-14T04:57:53;13.57;;;8.73;;
15381;SDS011;7789;51.364;12.358;2023-12-14T05:02:58;11.43;;;8.20;;
15381;SDS011;7789;51.364;12.358;2023-12-14T05:08:09;10.50;;;7.97;;
15381;SDS011;7789;51.364;12.358;2023-12-14T05:13:23;10.33;;;7.37;;
15381;SDS011;7789;51.364;12.358;2023-12-14T05:18:28;9.60;;;6.53;;
15381;SDS011;7789;51.364;12.358;2023-12-14T05:23:34;8.17;;;5.57;;
15381;SDS011;7789;51.364;12.358;2023-12-14T05:28:47;10.47;;;5.70;;
15381;SDS011;7789;51.364;12.358;2023-12-14T05:33:54;9.00;;;6.00;;
15381;SDS011;7789;51.364;12.358;2023-12-14T05:38:59;8.77;;;6.50;;
15381;SDS011;7789;51.364;12.358;2023-12-14T05:44:08;8.70;;;6.90;;
15381;SDS011;7789;51.364;12.358;2023-12-14T05:49:24;8.47;;;7.27;;
15381;SDS011;7789;51.364;12.358;2023-12-14T05:54:41;8.63;;;5.87;;
15381;SDS011;7789;51.364;12.358;2023-12-14T05:59:49;7.33;;;6.37;;
15381;SDS011;7789;51.364;12.358;2023-12-14T06:04:59;7.90;;;5.47;;
15381;SDS011;7789;51.364;12.358;2023-12-14T06:10:05;5.50;;;4.80;;
15381;SDS011;7789;51.364;12.358;2023-12-14T06:15:14;6.17;;;4.80;;
15381;SDS011;7789;51.364;12.358;2023-12-14T06:20:20;9.70;;;6.90;;
15381;SDS011;7789;51.364;12.358;2023-12-14T06:25:25;7.20;;;5.87;;
15381;SDS011;7789;51.364;12.358;2023-12-14T06:30:34;6.80;;;5.53;;
15381;SDS011;7789;51.364;12.358;2023-12-14T06:35:41;7.10;;;5.80;;
15381;SDS011;7789;51.364;12.358;2023-12-14T06:40:48;6.97;;;5.83;;
15381;SDS011;7789;51.364;12.358;2023-12-14T06:45:58;10.67;;;7.57;;
15381;SDS011;7789;51.364;12.358;2023-12-14T06:51:05;10.43;;;8.23;;
15381;SDS011;7789;51.364;12.358;2023-12-14T06:56:14;11.97;;;8.37;;
15381;SDS011;7789;51.364;12.358;2023-12-14T07:01:29;12.10;;;8.67;;
15381;SDS011;7789;51.364;12.358;2023-12-14T07:06:38;11.10;;;8.57;;
15381;SDS011;7789;51.364;12.358;2023-12-14T07:11:52;12.67;;;8.63;;
15381;SDS011;7789;51.364;12.358;2023-12-14T07:17:07;9.80;;;7.80;;
15381;SDS011;7789;51.364;12.358;2023-12-14T07:22:11;9.43;;;6.63;;
15381;SDS011;7789;51.364;12.358;2023-12-14T07:27:16;8.03;;;5.93;;
15381;SDS011;7789;51.364;12.358;2023-12-14T07:32:26;10.03;;;7.53;;
15381;SDS011;7789;51.364;12.358;2023-12-14T07:37:31;13.93;;;8.80;;
15381;SDS011;7789;51.364;12.358;2023-12-14T07:42:37;13.20;;;9.43;;
15381;SDS011;7789;51.364;12.358;2023-12-14T07:47:43;14.13;;;10.37;;
15381;SDS011;7789;51.364;12.358;2023-12-14T07:53:02;11.77;;;9.13;;
15381;SDS011;7789;51.364;12.358;2023-12-14T07:58:08;12.77;;;9.27;;
15381;SDS011;7789;51.364;12.358;2023-12-14T08:03:24;12.07;;;9.07;;
15381;SDS011;7789;51.364;12.358;2023-12-14T08:08:34;9.13;;;7.57;;
15381;SDS011;7789;51.364;12.358;2023-12-14T08:13:40;11.03;;;7.50;;
15381;SDS011;7789;51.364;12.358;2023-12-14T08:18:55;8.70;;;7.50;;
15381;SDS011;7789;51.364;12.358;2023-12-14T08:24:00;8.87;;;7.50;;
15381;SDS011;7789;51.364;12.358;2023-12-14T08:29:04;9.50;;;8.37;;
15381;SDS011;7789;51.364;12.358;2023-12-14T08:34:24;9.13;;;7.93;;
15381;SDS011;7789;51.364;12.358;2023-12-14T08:39:30;11.43;;;9.00;;
15381;SDS011;7789;51.364;12.358;2023-12-14T08:44:42;13.23;;;9.37;;
15381;SDS011;7789;51.364;12.358;2023-12-14T08:49:52;15.27;;;10.70;;
15381;SDS011;7789;51.364;12.358;2023-12-14T08:54:58;13.63;;;11.00;;
15381;SDS011;7789;51.364;12.358;2023-12-14T09:00:05;16.83;;;13.20;;
15381;SDS011;7789;51.364;12.358;2023-12-14T09:05:14;13.60;;;10.50;;
15381;SDS011;7789;51.364;12.358;2023-12-14T09:10:22;11.77;;;9.90;;
15381;SDS011;7789;51.364;12.358;2023-12-14T09:20:58;11.43;;;8.93;;
15381;SDS011;7789;51.364;12.358;2023-12-14T09:26:04;11.23;;;8.40;;
15381;SDS011;7789;51.364;12.358;2023-12-14T09:31:10;7.67;;;6.87;;
15381;SDS011;7789;51.364;12.358;2023-12-14T09:36:21;6.30;;;5.57;;
15381;SDS011;7789;51.364;12.358;2023-12-14T09:41:34;5.17;;;4.67;;
15381;SDS011;7789;51.364;12.358;2023-12-14T09:46:44;6.47;;;5.50;;
15381;SDS011;7789;51.364;12.358;2023-12-14T09:51:53;8.20;;;7.33;;
15381;SDS011;7789;51.364;12.358;2023-12-14T09:57:10;8.00;;;7.17;;
15381;SDS011;7789;51.364;12.358;2023-12-14T10:02:24;7.43;;;6.73;;
15381;SDS011;7789;51.364;12.358;2023-12-14T10:07:39;7.60;;;6.20;;
15381;SDS011;7789;51.364;12.358;2023-12-14T10:12:52;6.23;;;5.03;;
15381;SDS011;7789;51.364;12.358;2023-12-14T10:18:00;6.57;;;5.50;;
15381;SDS011;7789;51.364;12.358;2023-12-14T10:23:06;6.20;;;4.97;;
15381;SDS011;7789;51.364;12.358;2023-12-14T10:28:18;5.67;;;5.07;;
15381;SDS011;7789;51.364;12.358;2023-12-14T10:33:23;7.03;;;5.27;;
15381;SDS011;7789;51.364;12.358;2023-12-14T10:38:30;6.70;;;6.00;;
15381;SDS011;7789;51.364;12.358;2023-12-14T10:43:41;6.57;;;5.00;;
15381;SDS011;7789;51.364;12.358;2023-12-14T10:48:56;6.17;;;5.20;;
15381;SDS011;7789;51.364;12.358;2023-12-14T10:54:14;6.30;;;5.10;;
15381;SDS011;7789;51.364;12.358;2023-12-14T10:59:19;5.93;;;5.00;;
15381;SDS011;7789;51.364;12.358;2023-12-14T11:04:26;6.87;;;5.53;;
15381;SDS011;7789;51.364;12.358;2023-12-14T11:09:45;6.30;;;5.30;;
15381;SDS011;7789;51.364;12.358;2023-12-14T11:15:01;6.87;;;5.10;;
15381;SDS011;7789;51.364;12.358;2023-12-14T11:25:29;5.67;;;4.10;;
15381;SDS011;7789;51.364;12.358;2023-12-14T11:30:46;4.47;;;3.67;;
15381;SDS011;7789;51.364;12.358;2023-12-14T11:35:59;5.90;;;4.00;;
15381;SDS011;7789;51.364;12.358;2023-12-14T11:41:07;3.70;;;3.20;;
15381;SDS011;7789;51.364;12.358;2023-12-14T11:46:14;3.63;;;3.07;;
15381;SDS011;7789;51.364;12.358;2023-12-14T11:51:23;3.83;;;2.90;;
15381;SDS011;7789;51.364;12.358;2023-12-14T11:56:35;2.70;;;2.13;;
15381;SDS011;7789;51.364;12.358;2023-12-14T12:01:56;3.87;;;3.00;;
15381;SDS011;7789;51.364;12.358;2023-12-14T12:07:05;4.37;;;3.67;;
15381;SDS011;7789;51.364;12.358;2023-12-14T12:12:18;5.73;;;4.80;;
15381;SDS011;7789;51.364;12.358;2023-12-14T12:17:26;6.10;;;4.70;;
15381;SDS011;7789;51.364;12.358;2023-12-14T12:22:41;4.90;;;4.20;;
15381;SDS011;7789;51.364;12.358;2023-12-14T12:27:56;6.40;;;5.20;;
15381;SDS011;7789;51.364;12.358;2023-12-14T12:33:08;6.43;;;4.80;;
15381;SDS011;7789;51.364;12.358;2023-12-14T12:38:18;5.97;;;4.57;;
15381;SDS011;7789;51.364;12.358;2023-12-14T12:43:32;6.97;;;5.10;;
15381;SDS011;7789;51.364;12.358;2023-12-14T12:48:40;5.23;;;4.30;;
15381;SDS011;7789;51.364;12.358;2023-12-14T12:53:59;5.70;;;4.67;;
15381;SDS011;7789;51.364;12.358;2023-12-14T12:59:16;6.27;;;4.67;;
15381;SDS011;7789;51.364;12.358;2023-12-14T13:04:23;5.33;;;4.00;;
15381;SDS011;7789;51.364;12.358;2023-12-14T13:09:28;4.10;;;3.27;;
15381;SDS011;7789;51.364;12.358;2023-12-14T13:14:39;5.03;;;3.97;;
15381;SDS011;7789;51.364;12.358;2023-12-14T13:19:48;3.83;;;3.43;;
15381;SDS011;7789;51.364;12.358;2023-12-14T13:24:56;3.97;;;3.23;;
15381;SDS011;7789;51.364;12.358;2023-12-14T13:30:11;4.30;;;3.20;;
15381;SDS011;7789;51.364;12.358;2023-12-14T13:35:19;7.20;;;4.77;;
15381;SDS011;7789;51.364;12.358;2023-12-14T13:40:24;5.63;;;3.90;;
15381;SDS011;7789;51.364;12.358;2023-12-14T13:45:28;5.37;;;3.20;;
15381;SDS011;7789;51.364;12.358;2023-12-14T13:50:32;5.47;;;4.47;;
15381;SDS011;7789;51.364;12.358;2023-12-14T13:55:36;4.87;;;3.70;;
15381;SDS011;7789;51.364;12.358;2023-12-14T14:00:41;4.67;;;3.93;;
15381;SDS011;7789;51.364;12.358;2023-12-14T14:05:46;7.40;;;3.63;;
15381;SDS011;7789;51.364;12.358;2023-12-14T14:10:49;6.37;;;3.83;;
15381;SDS011;7789;51.364;12.358;2023-12-14T14:15:54;6.93;;;5.10;;
15381;SDS011;7789;51.364;12.358;2023-12-14T14:20:57;8.17;;;6.40;;
15381;SDS011;7789;51.364;12.358;2023-12-14T14:26:03;9.33;;;6.33;;
15381;SDS011;7789;51.364;12.358;2023-12-14T14:31:08;10.70;;;7.67;;
15381;SDS011;7789;51.364;12.358;2023-12-14T14:36:13;10.03;;;7.40;;
15381;SDS011;7789;51.364;12.358;2023-12-14T14:41:18;9.33;;;7.40;;
15381;SDS011;7789;51.364;12.358;2023-12-14T14:46:23;8.20;;;6.70;;
15381;SDS011;7789;51.364;12.358;2023-12-14T14:51:30;11.13;;;8.13;;
15381;SDS011;7789;51.364;12.358;2023-12-14T14:56:37;12.20;;;8.30;;
15381;SDS011;7789;51.364;12.358;2023-12-14T15:01:42;14.90;;;9.67;;
15381;SDS011;7789;51.364;12.358;2023-12-14T15:06:47;13.93;;;10.10;;
15381;SDS011;7789;51.364;12.358;2023-12-14T15:11:50;18.00;;;10.97;;
15381;SDS011;7789;51.364;12.358;2023-12-14T15:16:55;15.53;;;11.17;;
15381;SDS011;7789;51.364;12.358;2023-12-14T15:21:59;16.33;;;11.10;;
15381;SDS011;7789;51.364;12.358;2023-12-14T15:27:02;18.60;;;11.83;;
15381;SDS011;7789;51.364;12.358;2023-12-14T15:32:10;17.80;;;11.40;;
15381;SDS011;7789;51.364;12.358;2023-12-14T15:37:14;16.63;;;10.63;;
15381;SDS011;7789;51.364;12.358;2023-12-14T15:42:18;16.40;;;11.90;;
15381;SDS011;7789;51.364;12.358;2023-12-14T15:47:23;15.33;;;10.33;;
15381;SDS011;7789;51.364;12.358;2023-12-14T15:52:26;12.13;;;8.60;;
15381;SDS011;7789;51.364;12.358;2023-12-14T15:57:29;12.97;;;8.83;;
15381;SDS011;7789;51.364;12.358;2023-12-14T16:02:34;15.60;;;9.00;;
15381;SDS011;7789;51.364;12.358;2023-12-14T16:07:38;15.13;;;9.60;;
15381;SDS011;7789;51.364;12.358;2023-12-14T16:12:41;13.87;;;9.27;;
15381;SDS011;7789;51.364;12.358;2023-12-14T16:17:46;13.57;;;9.33;;
15381;SDS011;7789;51.364;12.358;2023-12-14T16:22:50;11.87;;;8.77;;
15381;SDS011;7789;51.364;12.358;2023-12-14T16:27:53;12.77;;;8.77;;
15381;SDS011;7789;51.364;12.358;2023-12-14T16:32:59;11.50;;;8.73;;
15381;SDS011;7789;51.364;12.358;2023-12-14T16:38:02;12.40;;;8.67;;
15381;SDS011;7789;51.364;12.358;2023-12-14T16:43:08;15.10;;;9.17;;
15381;SDS011;7789;51.364;12.358;2023-12-14T16:48:12;15.00;;;9.43;;
15381;SDS011;7789;51.364;12.358;2023-12-14T16:53:16;14.00;;;9.27;;
15381;SDS011;7789;51.364;12.358;2023-12-14T16:58:20;12.80;;;8.23;;
15381;SDS011;7789;51.364;12.358;2023-12-14T17:03:24;13.17;;;9.23;;
15381;SDS011;7789;51.364;12.358;2023-12-14T17:08:27;14.87;;;9.07;;
15381;SDS011;7789;51.364;12.358;2023-12-14T17:13:31;13.90;;;9.70;;
15381;SDS011;7789;51.364;12.358;2023-12-14T17:18:37;13.50;;;9.17;;
15381;SDS011;7789;51.364;12.358;2023-12-14T17:23:41;12.13;;;8.57;;
15381;SDS011;7789;51.364;12.358;2023-12-14T17:28:44;11.53;;;7.23;;
15381;SDS011;7789;51.364;12.358;2023-12-14T17:33:49;12.40;;;7.67;;
15381;SDS011;7789;51.364;12.358;2023-12-14T17:38:54;8.77;;;5.80;;
15381;SDS011;7789;51.364;12.358;2023-12-14T17:43:58;8.33;;;6.03;;
15381;SDS011;7789;51.364;12.358;2023-12-14T17:49:03;9.03;;;6.13;;
15381;SDS011;7789;51.364;12.358;2023-12-14T17:54:07;10.63;;;7.37;;
15381;SDS011;7789;51.364;12.358;2023-12-14T17:59:11;10.60;;;7.20;;
15381;SDS011;7789;51.364;12.358;2023-12-14T18:04:17;10.40;;;6.70;;
15381;SDS011;7789;51.364;12.358;2023-12-14T18:09:23;8.63;;;6.20;;
15381;SDS011;7789;51.364;12.358;2023-12-14T18:14:27;10.80;;;7.37;;
15381;SDS011;7789;51.364;12.358;2023-12-14T18:19:33;10.13;;;6.70;;
15381;SDS011;7789;51.364;12.358;2023-12-14T18:24:36;11.43;;;5.90;;
15381;SDS011;7789;51.364;12.358;2023-12-14T18:29:41;8.13;;;5.63;;
15381;SDS011;7789;51.364;12.358;2023-12-14T18:34:47;8.00;;;5.53;;
15381;SDS011;7789;51.364;12.358;2023-12-14T18:39:51;8.43;;;5.30;;
15381;SDS011;7789;51.364;12.358;2023-12-14T18:44:59;8.33;;;5.70;;
15381;SDS011;7789;51.364;12.358;2023-12-14T18:50:05;11.50;;;7.20;;
15381;SDS011;7789;51.364;12.358;2023-12-14T18:55:10;8.57;;;6.10;;
15381;SDS011;7789;51.364;12.358;2023-12-14T19:00:14;7.33;;;5.60;;
15381;SDS011;7789;51.364;12.358;2023-12-14T19:05:23;7.43;;;5.90;;
15381;SDS011;7789;51.364;12.358;2023-12-14T19:10:32;10.03;;;6.27;;
15381;SDS011;7789;51.364;12.358;2023-12-14T19:15:37;11.83;;;7.43;;
15381;SDS011;7789;51.364;12.358;2023-12-14T19:20:45;10.60;;;6.90;;
15381;SDS011;7789;51.364;12.358;2023-12-14T19:25:50;8.70;;;6.33;;
15381;SDS011;7789;51.364;12.358;2023-12-14T19:30:56;8.23;;;6.40;;
15381;SDS011;7789;51.364;12.358;2023-12-14T19:36:03;11.00;;;6.77;;
15381;SDS011;7789;51.364;12.358;2023-12-14T19:41:14;7.90;;;6.27;;
15381;SDS011;7789;51.364;12.358;2023-12-14T19:46:21;8.73;;;6.53;;
15381;SDS011;7789;51.364;12.358;2023-12-14T19:51:28;8.20;;;6.80;;
15381;SDS011;7789;51.364;12.358;2023-12-14T19:56:32;8.30;;;6.47;;
15381;SDS011;7789;51.364;12.358;2023-12-14T20:01:38;9.80;;;7.27;;
15381;SDS011;7789;51.364;12.358;2023-12-14T20:06:45;9.57;;;6.60;;
15381;SDS011;7789;51.364;12.358;2023-12-14T20:11:52;10.27;;;6.67;;
15381;SDS011;7789;51.364;12.358;2023-12-14T20:16:56;8.83;;;6.50;;
15381;SDS011;7789;51.364;12.358;2023-12-14T20:22:09;7.57;;;6.27;;
15381;SDS011;7789;51.364;12.358;2023-12-14T20:27:13;10.27;;;7.87;;
15381;SDS011;7789;51.364;12.358;2023-12-14T20:32:18;10.23;;;7.77;;
15381;SDS011;7789;51.364;12.358;2023-12-14T20:37:24;11.13;;;8.10;;
15381;SDS011;7789;51.364;12.358;2023-12-14T20:42:29;9.67;;;7.20;;
15381;SDS011;7789;51.364;12.358;2023-12-14T20:47:34;12.53;;;7.63;;
15381;SDS011;7789;51.364;12.358;2023-12-14T20:52:43;10.27;;;6.80;;
15381;SDS011;7789;51.364;12.358;2023-12-14T20:57:48;13.20;;;8.97;;
15381;SDS011;7789;51.364;12.358;2023-12-14T21:02:52;14.03;;;10.00;;
15381;SDS011;7789;51.364;12.358;2023-12-14T21:07:56;14.63;;;10.70;;
15381;SDS011;7789;51.364;12.358;2023-12-14T21:13:00;16.23;;;10.87;;
15381;SDS011;7789;51.364;12.358;2023-12-14T21:18:04;16.77;;;10.17;;
15381;SDS011;7789;51.364;12.358;2023-12-14T21:23:12;15.60;;;11.00;;
15381;SDS011;7789;51.364;12.358;2023-12-14T21:28:16;17.13;;;10.50;;
15381;SDS011;7789;51.364;12.358;2023-12-14T21:33:19;16.13;;;11.10;;
15381;SDS011;7789;51.364;12.358;2023-12-14T21:38:24;13.30;;;9.97;;
15381;SDS011;7789;51.364;12.358;2023-12-14T21:43:28;15.27;;;9.23;;
15381;SDS011;7789;51.364;12.358;2023-12-14T21:48:33;13.37;;;9.17;;
15381;SDS011;7789;51.364;12.358;2023-12-14T21:53:37;13.10;;;9.23;;
15381;SDS011;7789;51.364;12.358;2023-12-14T21:58:41;13.43;;;9.00;;
15381;SDS011;7789;51.364;12.358;2023-12-14T22:03:45;12.37;;;8.23;;
15381;SDS011;7789;51.364;12.358;2023-12-14T22:08:49;9.53;;;7.43;;
15381;SDS011;7789;51.364;12.358;2023-12-14T22:13:53;9.20;;;7.17;;
15381;SDS011;7789;51.364;12.358;2023-12-14T22:18:56;9.67;;;7.90;;
15381;SDS011;7789;51.364;12.358;2023-12-14T22:24:01;11.57;;;8.03;;
15381;SDS011;7789;51.364;12.358;2023-12-14T22:29:04;12.33;;;8.20;;
15381;SDS011;7789;51.364;12.358;2023-12-14T22:34:08;10.70;;;7.70;;
15381;SDS011;7789;51.364;12.358;2023-12-14T22:39:14;9.80;;;7.47;;
15381;SDS011;7789;51.364;12.358;2023-12-14T22:44:18;11.00;;;7.53;;
15381;SDS011;7789;51.364;12.358;2023-12-14T22:49:21;9.87;;;7.47;;
15381;SDS011;7789;51.364;12.358;2023-12-14T22:54:26;10.10;;;6.90;;
15381;SDS011;7789;51.364;12.358;2023-12-14T22:59:29;11.40;;;8.17;;
15381;SDS011;7789;51.364;12.358;2023-12-14T23:04:32;11.27;;;8.70;;
15381;SDS011;7789;51.364;12.358;2023-12-14T23:09:37;12.03;;;9.03;;
15381;SDS011;7789;51.364;12.358;2023-12-14T23:14:43;13.00;;;8.87;;
15381;SDS011;7789;51.364;12.358;2023-12-14T23:19:46;11.53;;;8.00;;
15381;SDS011;7789;51.364;12.358;2023-12-14T23:24:51;12.57;;;8.47;;
15381;SDS011;7789;51.364;12.358;2023-12-14T23:29:54;10.30;;;8.10;;
15381;SDS011;7789;51.364;12.358;2023-12-14T23:34:57;12.13;;;8.27;;
15381;SDS011;7789;51.364;12.358;2023-12-14T23:40:02;13.63;;;8.87;;
15381;SDS011;7789;51.364;12.358;2023-12-14T23:45:06;11.57;;;8.23;;
15381;SDS011;7789;51.364;12.358;2023-12-14T23:50:09;14.80;;;10.30;;
15381;SDS011;7789;51.364;12.358;2023-12-14T23:55:14;13.20;;;9.43;;
